sensor_id;sensor_type;location;lat;lon;timestamp;temperature;humidity
65584;DHT22;70321;43.592;1.456;2023-09-18T00:00:54;21.25;86.89
65584;DHT22;70321;43.592;1.456;2023-09-18T00:03:23;21.26;86.86
65584;DHT22;70321;43.592;1.456;2023-09-18T00:05:53;21.26;86.91
65584;DHT22;70321;43.592;1.456;2023-09-18T00:08:20;21.28;86.95
65584;DHT22;70321;43.592;1.456;2023-09-18T00:10:52;21.31;86.70
65584;DHT22;70321;43.592;1.456;2023-09-18T00:13:20;21.29;86.80
65584;DHT22;70321;43.592;1.456;2023-09-18T00:15:47;21.24;86.65
65584;DHT22;70321;43.592;1.456;2023-09-18T00:18:15;21.19;86.69
65584;DHT22;70321;43.592;1.456;2023-09-18T00:20:42;21.22;86.68
65584;DHT22;70321;43.592;1.456;2023-09-18T00:23:09;21.21;86.80
65584;DHT22;70321;43.592;1.456;2023-09-18T00:25:36;21.21;86.78
65584;DHT22;70321;43.592;1.456;2023-09-18T00:28:03;21.19;86.86
65584;DHT22;70321;43.592;1.456;2023-09-18T00:30:30;21.21;86.92
65584;DHT22;70321;43.592;1.456;2023-09-18T00:32:57;21.21;86.78
65584;DHT22;70321;43.592;1.456;2023-09-18T00:35:24;21.25;86.86
65584;DHT22;70321;43.592;1.456;2023-09-18T00:37:51;21.29;86.89
65584;DHT22;70321;43.592;1.456;2023-09-18T00:40:18;21.25;86.91
65584;DHT22;70321;43.592;1.456;2023-09-18T00:42:45;21.28;86.90
65584;DHT22;70321;43.592;1.456;2023-09-18T00:45:12;21.26;86.95
65584;DHT22;70321;43.592;1.456;2023-09-18T00:47:39;21.29;86.94
65584;DHT22;70321;43.592;1.456;2023-09-18T00:50:10;21.26;86.92
65584;DHT22;70321;43.592;1.456;2023-09-18T00:52:38;21.29;86.90
65584;DHT22;70321;43.592;1.456;2023-09-18T00:55:06;21.26;86.92
65584;DHT22;70321;43.592;1.456;2023-09-18T00:57:33;21.26;87.03
65584;DHT22;70321;43.592;1.456;2023-09-18T01:00:02;21.26;87.08
65584;DHT22;70321;43.592;1.456;2023-09-18T01:02:31;21.25;87.17
65584;DHT22;70321;43.592;1.456;2023-09-18T01:04:58;21.25;87.13
65584;DHT22;70321;43.592;1.456;2023-09-18T01:07:25;21.25;87.07
65584;DHT22;70321;43.592;1.456;2023-09-18T01:09:55;21.25;87.14
65584;DHT22;70321;43.592;1.456;2023-09-18T01:15:07;21.22;87.20
65584;DHT22;70321;43.592;1.456;2023-09-18T01:17:35;21.16;87.13
65584;DHT22;70321;43.592;1.456;2023-09-18T01:20:08;21.15;87.13
65584;DHT22;70321;43.592;1.456;2023-09-18T01:22:35;21.16;87.15
65584;DHT22;70321;43.592;1.456;2023-09-18T01:25:02;21.18;87.21
65584;DHT22;70321;43.592;1.456;2023-09-18T01:27:29;21.21;87.24
65584;DHT22;70321;43.592;1.456;2023-09-18T01:29:55;21.19;87.21
65584;DHT22;70321;43.592;1.456;2023-09-18T01:32:24;21.19;87.27
65584;DHT22;70321;43.592;1.456;2023-09-18T01:34:54;21.21;87.27
65584;DHT22;70321;43.592;1.456;2023-09-18T01:37:32;21.16;87.31
65584;DHT22;70321;43.592;1.456;2023-09-18T01:39:59;21.16;87.43
65584;DHT22;70321;43.592;1.456;2023-09-18T01:42:27;21.18;87.35
65584;DHT22;70321;43.592;1.456;2023-09-18T01:44:54;21.18;87.45
65584;DHT22;70321;43.592;1.456;2023-09-18T01:47:22;21.18;87.48
65584;DHT22;70321;43.592;1.456;2023-09-18T01:49:55;21.19;87.48
65584;DHT22;70321;43.592;1.456;2023-09-18T01:52:22;21.19;87.50
65584;DHT22;70321;43.592;1.456;2023-09-18T01:54:49;21.16;87.42
65584;DHT22;70321;43.592;1.456;2023-09-18T01:57:15;21.18;87.44
65584;DHT22;70321;43.592;1.456;2023-09-18T01:59:42;21.18;87.45
65584;DHT22;70321;43.592;1.456;2023-09-18T02:02:10;21.18;87.60
65584;DHT22;70321;43.592;1.456;2023-09-18T02:04:48;21.18;87.60
65584;DHT22;70321;43.592;1.456;2023-09-18T02:07:34;21.08;87.36
65584;DHT22;70321;43.592;1.456;2023-09-18T02:10:02;21.05;87.44
65584;DHT22;70321;43.592;1.456;2023-09-18T02:12:29;21.01;87.68
65584;DHT22;70321;43.592;1.456;2023-09-18T02:14:56;21.02;87.67
65584;DHT22;70321;43.592;1.456;2023-09-18T02:17:25;21.01;87.74
65584;DHT22;70321;43.592;1.456;2023-09-18T02:19:52;20.98;87.84
65584;DHT22;70321;43.592;1.456;2023-09-18T02:22:18;20.96;87.85
65584;DHT22;70321;43.592;1.456;2023-09-18T02:24:45;20.95;87.77
65584;DHT22;70321;43.592;1.456;2023-09-18T02:27:12;20.94;87.67
65584;DHT22;70321;43.592;1.456;2023-09-18T02:29:40;20.92;87.71
65584;DHT22;70321;43.592;1.456;2023-09-18T02:32:07;20.94;87.58
65584;DHT22;70321;43.592;1.456;2023-09-18T02:34:34;20.92;87.60
65584;DHT22;70321;43.592;1.456;2023-09-18T02:37:00;20.88;87.64
65584;DHT22;70321;43.592;1.456;2023-09-18T02:39:27;20.91;87.52
65584;DHT22;70321;43.592;1.456;2023-09-18T02:41:54;20.92;87.47
65584;DHT22;70321;43.592;1.456;2023-09-18T02:44:20;20.90;87.55
65584;DHT22;70321;43.592;1.456;2023-09-18T02:46:47;20.90;87.51
65584;DHT22;70321;43.592;1.456;2023-09-18T02:49:14;20.87;87.56
65584;DHT22;70321;43.592;1.456;2023-09-18T02:51:41;20.90;87.40
65584;DHT22;70321;43.592;1.456;2023-09-18T02:54:08;20.87;87.19
65584;DHT22;70321;43.592;1.456;2023-09-18T02:56:34;20.90;86.97
65584;DHT22;70321;43.592;1.456;2023-09-18T02:59:01;20.88;87.30
65584;DHT22;70321;43.592;1.456;2023-09-18T03:01:28;20.83;87.35
65584;DHT22;70321;43.592;1.456;2023-09-18T03:03:54;20.81;87.44
65584;DHT22;70321;43.592;1.456;2023-09-18T03:06:21;20.81;87.55
65584;DHT22;70321;43.592;1.456;2023-09-18T03:08:48;20.83;87.69
65584;DHT22;70321;43.592;1.456;2023-09-18T03:11:15;20.83;87.65
65584;DHT22;70321;43.592;1.456;2023-09-18T03:13:44;20.84;87.71
65584;DHT22;70321;43.592;1.456;2023-09-18T03:16:14;20.87;87.71
65584;DHT22;70321;43.592;1.456;2023-09-18T03:18:41;20.87;87.80
65584;DHT22;70321;43.592;1.456;2023-09-18T03:21:08;20.87;87.76
65584;DHT22;70321;43.592;1.456;2023-09-18T03:23:34;20.87;87.30
65584;DHT22;70321;43.592;1.456;2023-09-18T03:26:01;20.85;87.42
65584;DHT22;70321;43.592;1.456;2023-09-18T03:28:29;20.85;87.65
65584;DHT22;70321;43.592;1.456;2023-09-18T03:30:57;20.81;87.79
65584;DHT22;70321;43.592;1.456;2023-09-18T03:33:24;20.78;87.82
65584;DHT22;70321;43.592;1.456;2023-09-18T03:35:53;20.75;87.99
65584;DHT22;70321;43.592;1.456;2023-09-18T03:38:21;20.75;88.09
65584;DHT22;70321;43.592;1.456;2023-09-18T03:40:48;20.77;88.17
65584;DHT22;70321;43.592;1.456;2023-09-18T03:43:15;20.78;88.22
65584;DHT22;70321;43.592;1.456;2023-09-18T03:45:44;20.80;88.25
65584;DHT22;70321;43.592;1.456;2023-09-18T03:48:11;20.81;88.15
65584;DHT22;70321;43.592;1.456;2023-09-18T03:50:38;20.81;87.99
65584;DHT22;70321;43.592;1.456;2023-09-18T03:53:06;20.78;88.16
65584;DHT22;70321;43.592;1.456;2023-09-18T03:55:33;20.74;88.23
65584;DHT22;70321;43.592;1.456;2023-09-18T03:58:00;20.68;88.27
65584;DHT22;70321;43.592;1.456;2023-09-18T04:00:27;20.65;88.39
65584;DHT22;70321;43.592;1.456;2023-09-18T04:02:54;20.67;88.45
65584;DHT22;70321;43.592;1.456;2023-09-18T04:05:21;20.65;88.40
65584;DHT22;70321;43.592;1.456;2023-09-18T04:07:47;20.67;88.27
65584;DHT22;70321;43.592;1.456;2023-09-18T04:10:14;20.73;88.28
65584;DHT22;70321;43.592;1.456;2023-09-18T04:12:46;20.74;88.10
65584;DHT22;70321;43.592;1.456;2023-09-18T04:15:14;20.71;88.19
65584;DHT22;70321;43.592;1.456;2023-09-18T04:17:41;20.70;88.18
65584;DHT22;70321;43.592;1.456;2023-09-18T04:20:09;20.64;88.15
65584;DHT22;70321;43.592;1.456;2023-09-18T04:22:36;20.60;88.07
65584;DHT22;70321;43.592;1.456;2023-09-18T04:25:03;20.58;88.07
65584;DHT22;70321;43.592;1.456;2023-09-18T04:27:31;20.57;88.04
65584;DHT22;70321;43.592;1.456;2023-09-18T04:29:58;20.57;88.05
65584;DHT22;70321;43.592;1.456;2023-09-18T04:32:27;20.55;88.15
65584;DHT22;70321;43.592;1.456;2023-09-18T04:34:54;20.54;88.06
65584;DHT22;70321;43.592;1.456;2023-09-18T04:37:21;20.50;88.01
65584;DHT22;70321;43.592;1.456;2023-09-18T04:39:48;20.44;87.96
65584;DHT22;70321;43.592;1.456;2023-09-18T04:42:14;20.37;87.70
65584;DHT22;70321;43.592;1.456;2023-09-18T04:44:41;20.31;87.82
65584;DHT22;70321;43.592;1.456;2023-09-18T04:47:08;20.29;87.89
65584;DHT22;70321;43.592;1.456;2023-09-18T04:49:35;20.29;87.87
65584;DHT22;70321;43.592;1.456;2023-09-18T04:52:02;20.31;87.76
65584;DHT22;70321;43.592;1.456;2023-09-18T04:54:29;20.33;87.83
65584;DHT22;70321;43.592;1.456;2023-09-18T04:56:55;20.29;87.66
65584;DHT22;70321;43.592;1.456;2023-09-18T04:59:22;20.24;87.71
65584;DHT22;70321;43.592;1.456;2023-09-18T05:01:49;20.21;87.68
65584;DHT22;70321;43.592;1.456;2023-09-18T05:04:15;20.23;87.67
65584;DHT22;70321;43.592;1.456;2023-09-18T05:06:42;20.21;87.77
65584;DHT22;70321;43.592;1.456;2023-09-18T05:09:09;20.21;87.62
65584;DHT22;70321;43.592;1.456;2023-09-18T05:11:36;20.23;87.74
65584;DHT22;70321;43.592;1.456;2023-09-18T05:14:03;20.21;87.75
65584;DHT22;70321;43.592;1.456;2023-09-18T05:16:29;20.27;87.77
65584;DHT22;70321;43.592;1.456;2023-09-18T05:18:59;20.24;87.68
65584;DHT22;70321;43.592;1.456;2023-09-18T05:21:26;20.20;87.61
65584;DHT22;70321;43.592;1.456;2023-09-18T05:23:53;20.21;87.64
65584;DHT22;70321;43.592;1.456;2023-09-18T05:26:20;20.20;87.62
65584;DHT22;70321;43.592;1.456;2023-09-18T05:28:50;20.24;87.61
65584;DHT22;70321;43.592;1.456;2023-09-18T05:31:17;20.29;87.25
65584;DHT22;70321;43.592;1.456;2023-09-18T05:33:44;20.29;87.30
65584;DHT22;70321;43.592;1.456;2023-09-18T05:36:13;20.30;87.40
65584;DHT22;70321;43.592;1.456;2023-09-18T05:38:41;20.30;87.37
65584;DHT22;70321;43.592;1.456;2023-09-18T05:41:09;20.31;87.32
65584;DHT22;70321;43.592;1.456;2023-09-18T05:43:36;20.36;87.42
65584;DHT22;70321;43.592;1.456;2023-09-18T05:46:03;20.36;87.16
65584;DHT22;70321;43.592;1.456;2023-09-18T05:48:30;20.37;86.95
65584;DHT22;70321;43.592;1.456;2023-09-18T05:50:57;20.37;87.12
65584;DHT22;70321;43.592;1.456;2023-09-18T05:53:24;20.39;87.12
65584;DHT22;70321;43.592;1.456;2023-09-18T05:55:51;20.43;87.17
65584;DHT22;70321;43.592;1.456;2023-09-18T05:58:18;20.44;87.20
65584;DHT22;70321;43.592;1.456;2023-09-18T06:00:48;20.47;87.34
65584;DHT22;70321;43.592;1.456;2023-09-18T06:03:16;20.47;87.40
65584;DHT22;70321;43.592;1.456;2023-09-18T06:05:45;20.48;87.57
65584;DHT22;70321;43.592;1.456;2023-09-18T06:08:13;20.47;87.64
65584;DHT22;70321;43.592;1.456;2023-09-18T06:10:42;20.47;87.93
65584;DHT22;70321;43.592;1.456;2023-09-18T06:13:08;20.48;87.95
65584;DHT22;70321;43.592;1.456;2023-09-18T06:15:35;20.47;87.92
65584;DHT22;70321;43.592;1.456;2023-09-18T06:18:02;20.45;87.96
65584;DHT22;70321;43.592;1.456;2023-09-18T06:20:30;20.44;88.07
65584;DHT22;70321;43.592;1.456;2023-09-18T06:22:57;20.43;88.19
65584;DHT22;70321;43.592;1.456;2023-09-18T06:25:23;20.48;88.38
65584;DHT22;70321;43.592;1.456;2023-09-18T06:27:50;20.55;88.42
65584;DHT22;70321;43.592;1.456;2023-09-18T06:30:17;20.61;88.33
65584;DHT22;70321;43.592;1.456;2023-09-18T06:32:44;20.70;88.33
65584;DHT22;70321;43.592;1.456;2023-09-18T06:35:11;20.73;88.32
65584;DHT22;70321;43.592;1.456;2023-09-18T06:37:38;20.78;88.21
65584;DHT22;70321;43.592;1.456;2023-09-18T06:40:05;20.80;88.18
65584;DHT22;70321;43.592;1.456;2023-09-18T06:42:32;20.84;88.29
65584;DHT22;70321;43.592;1.456;2023-09-18T06:44:59;20.83;88.22
65584;DHT22;70321;43.592;1.456;2023-09-18T06:47:27;20.84;88.16
65584;DHT22;70321;43.592;1.456;2023-09-18T06:49:54;20.83;88.19
65584;DHT22;70321;43.592;1.456;2023-09-18T06:52:21;20.87;88.26
65584;DHT22;70321;43.592;1.456;2023-09-18T06:54:48;20.87;88.20
65584;DHT22;70321;43.592;1.456;2023-09-18T06:57:14;20.92;88.17
65584;DHT22;70321;43.592;1.456;2023-09-18T06:59:41;20.96;88.20
65584;DHT22;70321;43.592;1.456;2023-09-18T07:02:08;21.01;87.94
65584;DHT22;70321;43.592;1.456;2023-09-18T07:04:35;21.06;88.11
65584;DHT22;70321;43.592;1.456;2023-09-18T07:07:02;21.09;88.12
65584;DHT22;70321;43.592;1.456;2023-09-18T07:09:28;21.12;88.05
65584;DHT22;70321;43.592;1.456;2023-09-18T07:11:55;21.18;88.03
65584;DHT22;70321;43.592;1.456;2023-09-18T07:14:22;21.21;87.97
65584;DHT22;70321;43.592;1.456;2023-09-18T07:16:49;21.25;87.86
65584;DHT22;70321;43.592;1.456;2023-09-18T07:19:15;21.26;87.96
65584;DHT22;70321;43.592;1.456;2023-09-18T07:21:45;21.24;87.85
65584;DHT22;70321;43.592;1.456;2023-09-18T07:24:12;21.24;87.85
65584;DHT22;70321;43.592;1.456;2023-09-18T07:26:47;21.28;87.85
65584;DHT22;70321;43.592;1.456;2023-09-18T07:29:15;21.28;87.95
65584;DHT22;70321;43.592;1.456;2023-09-18T07:31:43;21.32;87.90
65584;DHT22;70321;43.592;1.456;2023-09-18T07:34:10;21.35;88.00
65584;DHT22;70321;43.592;1.456;2023-09-18T07:36:39;21.38;88.03
65584;DHT22;70321;43.592;1.456;2023-09-18T07:39:06;21.46;88.01
65584;DHT22;70321;43.592;1.456;2023-09-18T07:41:33;21.46;87.95
65584;DHT22;70321;43.592;1.456;2023-09-18T07:44:00;21.52;88.02
65584;DHT22;70321;43.592;1.456;2023-09-18T07:46:26;21.52;87.93
65584;DHT22;70321;43.592;1.456;2023-09-18T07:48:53;21.52;87.59
65584;DHT22;70321;43.592;1.456;2023-09-18T07:51:21;21.53;87.68
65584;DHT22;70321;43.592;1.456;2023-09-18T07:53:47;21.58;87.69
65584;DHT22;70321;43.592;1.456;2023-09-18T07:56:14;21.56;87.73
65584;DHT22;70321;43.592;1.456;2023-09-18T07:58:41;21.56;87.76
65584;DHT22;70321;43.592;1.456;2023-09-18T08:01:08;21.60;87.57
65584;DHT22;70321;43.592;1.456;2023-09-18T08:03:36;21.60;87.64
65584;DHT22;70321;43.592;1.456;2023-09-18T08:06:03;21.67;87.15
65584;DHT22;70321;43.592;1.456;2023-09-18T08:08:31;21.73;87.09
65584;DHT22;70321;43.592;1.456;2023-09-18T08:11:07;21.83;86.68
65584;DHT22;70321;43.592;1.456;2023-09-18T08:13:35;21.97;86.70
65584;DHT22;70321;43.592;1.456;2023-09-18T08:16:06;22.14;85.92
65584;DHT22;70321;43.592;1.456;2023-09-18T08:18:32;22.23;85.98
65584;DHT22;70321;43.592;1.456;2023-09-18T08:20:59;22.43;84.98
65584;DHT22;70321;43.592;1.456;2023-09-18T08:23:27;22.55;85.16
65584;DHT22;70321;43.592;1.456;2023-09-18T08:25:54;22.64;85.52
65584;DHT22;70321;43.592;1.456;2023-09-18T08:28:23;22.74;85.45
65584;DHT22;70321;43.592;1.456;2023-09-18T08:30:50;22.84;84.84
65584;DHT22;70321;43.592;1.456;2023-09-18T08:33:17;22.95;84.68
65584;DHT22;70321;43.592;1.456;2023-09-18T08:35:44;23.02;82.24
65584;DHT22;70321;43.592;1.456;2023-09-18T08:38:10;23.12;81.53
65584;DHT22;70321;43.592;1.456;2023-09-18T08:40:40;23.14;82.76
65584;DHT22;70321;43.592;1.456;2023-09-18T08:43:08;23.22;83.16
65584;DHT22;70321;43.592;1.456;2023-09-18T08:46:10;23.32;83.31
65584;DHT22;70321;43.592;1.456;2023-09-18T08:48:31;23.45;83.01
65584;DHT22;70321;43.592;1.456;2023-09-18T08:51:05;23.58;82.32
65584;DHT22;70321;43.592;1.456;2023-09-18T08:53:33;23.65;82.33
65584;DHT22;70321;43.592;1.456;2023-09-18T08:56:02;23.74;81.88
65584;DHT22;70321;43.592;1.456;2023-09-18T08:58:33;23.80;80.60
65584;DHT22;70321;43.592;1.456;2023-09-18T09:01:02;23.82;80.34
65584;DHT22;70321;43.592;1.456;2023-09-18T09:03:30;23.83;80.20
65584;DHT22;70321;43.592;1.456;2023-09-18T09:05:57;23.94;80.69
65584;DHT22;70321;43.592;1.456;2023-09-18T09:08:28;24.04;80.26
65584;DHT22;70321;43.592;1.456;2023-09-18T09:10:55;24.14;79.60
65584;DHT22;70321;43.592;1.456;2023-09-18T09:13:24;24.28;79.13
65584;DHT22;70321;43.592;1.456;2023-09-18T09:16:10;24.47;78.48
65584;DHT22;70321;43.592;1.456;2023-09-18T09:18:47;24.56;77.15
65584;DHT22;70321;43.592;1.456;2023-09-18T09:21:14;24.64;76.43
65584;DHT22;70321;43.592;1.456;2023-09-18T09:23:47;24.74;75.63
65584;DHT22;70321;43.592;1.456;2023-09-18T09:26:22;24.87;73.01
65584;DHT22;70321;43.592;1.456;2023-09-18T09:28:50;25.01;74.85
65584;DHT22;70321;43.592;1.456;2023-09-18T09:31:29;25.23;74.37
65584;DHT22;70321;43.592;1.456;2023-09-18T09:33:57;25.46;73.26
65584;DHT22;70321;43.592;1.456;2023-09-18T09:36:25;25.65;73.68
65584;DHT22;70321;43.592;1.456;2023-09-18T09:38:58;25.83;72.59
65584;DHT22;70321;43.592;1.456;2023-09-18T09:41:26;26.03;72.02
65584;DHT22;70321;43.592;1.456;2023-09-18T09:43:54;26.20;70.60
65584;DHT22;70321;43.592;1.456;2023-09-18T09:46:23;26.36;69.84
65584;DHT22;70321;43.592;1.456;2023-09-18T09:49:03;26.45;70.56
65584;DHT22;70321;43.592;1.456;2023-09-18T09:51:31;26.64;70.68
65584;DHT22;70321;43.592;1.456;2023-09-18T09:53:58;26.75;69.63
65584;DHT22;70321;43.592;1.456;2023-09-18T09:56:46;26.87;66.46
65584;DHT22;70321;43.592;1.456;2023-09-18T09:59:15;26.90;66.54
65584;DHT22;70321;43.592;1.456;2023-09-18T10:01:42;26.94;66.73
65584;DHT22;70321;43.592;1.456;2023-09-18T10:04:15;27.08;67.58
65584;DHT22;70321;43.592;1.456;2023-09-18T10:06:54;27.16;64.96
65584;DHT22;70321;43.592;1.456;2023-09-18T10:09:23;27.21;64.47
65584;DHT22;70321;43.592;1.456;2023-09-18T10:11:54;27.25;63.61
65584;DHT22;70321;43.592;1.456;2023-09-18T10:16:59;27.26;62.65
65584;DHT22;70321;43.592;1.456;2023-09-18T10:20:10;27.24;61.69
65584;DHT22;70321;43.592;1.456;2023-09-18T10:22:49;27.26;61.51
65584;DHT22;70321;43.592;1.456;2023-09-18T10:25:29;27.43;63.35
65584;DHT22;70321;43.592;1.456;2023-09-18T10:27:58;27.59;61.05
65584;DHT22;70321;43.592;1.456;2023-09-18T10:30:29;27.67;60.28
65584;DHT22;70321;43.592;1.456;2023-09-18T10:32:56;27.73;60.49
65584;DHT22;70321;43.592;1.456;2023-09-18T10:35:26;27.85;60.50
65584;DHT22;70321;43.592;1.456;2023-09-18T10:37:54;27.96;61.12
65584;DHT22;70321;43.592;1.456;2023-09-18T10:40:21;28.10;58.99
65584;DHT22;70321;43.592;1.456;2023-09-18T10:42:50;28.30;59.62
65584;DHT22;70321;43.592;1.456;2023-09-18T10:45:18;28.54;59.62
65584;DHT22;70321;43.592;1.456;2023-09-18T10:47:46;28.78;58.77
65584;DHT22;70321;43.592;1.456;2023-09-18T10:50:25;28.96;57.83
65584;DHT22;70321;43.592;1.456;2023-09-18T10:52:52;29.02;54.82
65584;DHT22;70321;43.592;1.456;2023-09-18T10:55:21;28.99;56.78
65584;DHT22;70321;43.592;1.456;2023-09-18T10:57:56;29.08;53.89
65584;DHT22;70321;43.592;1.456;2023-09-18T11:00:29;29.11;55.50
65584;DHT22;70321;43.592;1.456;2023-09-18T11:03:29;29.23;56.76
65584;DHT22;70321;43.592;1.456;2023-09-18T11:06:11;29.39;53.37
65584;DHT22;70321;43.592;1.456;2023-09-18T11:08:46;29.36;52.87
65584;DHT22;70321;43.592;1.456;2023-09-18T11:11:13;29.40;52.36
65584;DHT22;70321;43.592;1.456;2023-09-18T11:13:56;29.46;52.17
65584;DHT22;70321;43.592;1.456;2023-09-18T11:21:24;29.53;51.23
65584;DHT22;70321;43.592;1.456;2023-09-18T11:24:14;29.52;49.36
65584;DHT22;70321;43.592;1.456;2023-09-18T11:26:44;29.55;46.50
65584;DHT22;70321;43.592;1.456;2023-09-18T11:29:12;29.35;48.29
65584;DHT22;70321;43.592;1.456;2023-09-18T11:31:44;29.29;46.31
65584;DHT22;70321;43.592;1.456;2023-09-18T11:34:30;29.35;48.98
65584;DHT22;70321;43.592;1.456;2023-09-18T11:37:19;29.60;48.83
65584;DHT22;70321;43.592;1.456;2023-09-18T11:39:46;29.81;45.22
65584;DHT22;70321;43.592;1.456;2023-09-18T11:42:14;29.90;45.33
65584;DHT22;70321;43.592;1.456;2023-09-18T11:44:43;29.87;44.93
65584;DHT22;70321;43.592;1.456;2023-09-18T11:47:18;30.07;47.12
65584;DHT22;70321;43.592;1.456;2023-09-18T11:49:50;30.48;46.38
65584;DHT22;70321;43.592;1.456;2023-09-18T11:52:25;30.88;44.34
65584;DHT22;70321;43.592;1.456;2023-09-18T11:54:53;31.35;44.53
65584;DHT22;70321;43.592;1.456;2023-09-18T11:57:21;31.76;41.49
65584;DHT22;70321;43.592;1.456;2023-09-18T11:59:48;31.90;42.59
65584;DHT22;70321;43.592;1.456;2023-09-18T12:02:30;32.09;41.57
65584;DHT22;70321;43.592;1.456;2023-09-18T12:05:10;32.41;41.31
65584;DHT22;70321;43.592;1.456;2023-09-18T12:07:38;32.64;41.59
65584;DHT22;70321;43.592;1.456;2023-09-18T12:10:06;32.63;40.55
65584;DHT22;70321;43.592;1.456;2023-09-18T12:12:35;32.34;42.86
65584;DHT22;70321;43.592;1.456;2023-09-18T12:15:02;32.19;44.53
65584;DHT22;70321;43.592;1.456;2023-09-18T12:17:30;31.90;44.12
65584;DHT22;70321;43.592;1.456;2023-09-18T12:19:56;31.50;44.31
65584;DHT22;70321;43.592;1.456;2023-09-18T12:22:27;30.98;44.08
65584;DHT22;70321;43.592;1.456;2023-09-18T12:25:14;30.98;44.94
65584;DHT22;70321;43.592;1.456;2023-09-18T12:27:43;30.92;44.79
65584;DHT22;70321;43.592;1.456;2023-09-18T12:30:11;31.12;42.38
65584;DHT22;70321;43.592;1.456;2023-09-18T12:32:39;31.28;42.66
65584;DHT22;70321;43.592;1.456;2023-09-18T12:35:06;31.49;39.37
65584;DHT22;70321;43.592;1.456;2023-09-18T12:37:39;31.36;40.62
65584;DHT22;70321;43.592;1.456;2023-09-18T12:40:27;30.98;42.16
65584;DHT22;70321;43.592;1.456;2023-09-18T12:42:57;30.63;42.11
65584;DHT22;70321;43.592;1.456;2023-09-18T12:45:25;30.30;43.69
65584;DHT22;70321;43.592;1.456;2023-09-18T12:47:55;29.89;44.75
65584;DHT22;70321;43.592;1.456;2023-09-18T12:50:22;29.79;45.96
65584;DHT22;70321;43.592;1.456;2023-09-18T12:52:49;29.83;47.52
65584;DHT22;70321;43.592;1.456;2023-09-18T12:55:25;29.79;46.67
65584;DHT22;70321;43.592;1.456;2023-09-18T12:57:53;29.69;45.67
65584;DHT22;70321;43.592;1.456;2023-09-18T13:00:22;29.53;45.90
65584;DHT22;70321;43.592;1.456;2023-09-18T13:02:50;29.30;46.67
65584;DHT22;70321;43.592;1.456;2023-09-18T13:05:23;29.15;46.77
65584;DHT22;70321;43.592;1.456;2023-09-18T13:07:54;29.05;47.61
65584;DHT22;70321;43.592;1.456;2023-09-18T13:10:21;29.01;48.06
65584;DHT22;70321;43.592;1.456;2023-09-18T13:12:52;29.02;49.16
65584;DHT22;70321;43.592;1.456;2023-09-18T13:15:29;29.70;47.13
65584;DHT22;70321;43.592;1.456;2023-09-18T13:17:58;29.84;47.24
65584;DHT22;70321;43.592;1.456;2023-09-18T13:20:27;29.89;45.94
65584;DHT22;70321;43.592;1.456;2023-09-18T13:22:58;29.62;46.90
65584;DHT22;70321;43.592;1.456;2023-09-18T13:25:40;29.33;47.16
65584;DHT22;70321;43.592;1.456;2023-09-18T13:28:11;29.08;46.52
65584;DHT22;70321;43.592;1.456;2023-09-18T13:30:41;29.09;45.70
65584;DHT22;70321;43.592;1.456;2023-09-18T13:33:10;28.90;45.47
65584;DHT22;70321;43.592;1.456;2023-09-18T13:35:39;28.90;46.58
65584;DHT22;70321;43.592;1.456;2023-09-18T13:38:07;29.65;44.44
65584;DHT22;70321;43.592;1.456;2023-09-18T13:40:45;30.54;45.02
65584;DHT22;70321;43.592;1.456;2023-09-18T13:43:13;31.32;44.23
65584;DHT22;70321;43.592;1.456;2023-09-18T13:45:45;31.80;38.13
65584;DHT22;70321;43.592;1.456;2023-09-18T13:48:12;32.02;38.80
65584;DHT22;70321;43.592;1.456;2023-09-18T13:50:39;32.38;35.77
65584;DHT22;70321;43.592;1.456;2023-09-18T13:53:06;32.70;36.21
65584;DHT22;70321;43.592;1.456;2023-09-18T13:55:33;32.67;35.51
65584;DHT22;70321;43.592;1.456;2023-09-18T13:58:01;32.35;37.21
65584;DHT22;70321;43.592;1.456;2023-09-18T14:00:31;31.54;38.30
65584;DHT22;70321;43.592;1.456;2023-09-18T14:02:58;30.88;39.19
65584;DHT22;70321;43.592;1.456;2023-09-18T14:05:26;30.28;40.55
65584;DHT22;70321;43.592;1.456;2023-09-18T14:07:55;30.28;40.65
65584;DHT22;70321;43.592;1.456;2023-09-18T14:10:27;29.72;39.71
65584;DHT22;70321;43.592;1.456;2023-09-18T14:12:54;29.26;41.74
65584;DHT22;70321;43.592;1.456;2023-09-18T14:15:21;29.01;44.28
65584;DHT22;70321;43.592;1.456;2023-09-18T14:17:48;28.74;45.45
65584;DHT22;70321;43.592;1.456;2023-09-18T14:20:15;28.30;46.27
65584;DHT22;70321;43.592;1.456;2023-09-18T14:22:46;28.04;46.44
65584;DHT22;70321;43.592;1.456;2023-09-18T14:25:16;27.92;46.50
65584;DHT22;70321;43.592;1.456;2023-09-18T14:27:43;27.83;46.41
65584;DHT22;70321;43.592;1.456;2023-09-18T14:30:11;27.70;45.48
65584;DHT22;70321;43.592;1.456;2023-09-18T14:32:40;27.50;44.96
65584;DHT22;70321;43.592;1.456;2023-09-18T14:35:07;27.66;44.23
65584;DHT22;70321;43.592;1.456;2023-09-18T14:37:37;28.34;43.53
65584;DHT22;70321;43.592;1.456;2023-09-18T14:40:04;28.82;42.15
65584;DHT22;70321;43.592;1.456;2023-09-18T14:42:31;29.05;41.60
65584;DHT22;70321;43.592;1.456;2023-09-18T14:45:00;28.71;41.97
65584;DHT22;70321;43.592;1.456;2023-09-18T14:47:28;28.28;41.14
65584;DHT22;70321;43.592;1.456;2023-09-18T14:49:55;27.94;42.79
65584;DHT22;70321;43.592;1.456;2023-09-18T14:52:22;27.60;44.42
65584;DHT22;70321;43.592;1.456;2023-09-18T14:54:52;27.43;45.16
65584;DHT22;70321;43.592;1.456;2023-09-18T14:57:19;27.38;44.96
65584;DHT22;70321;43.592;1.456;2023-09-18T14:59:45;27.24;45.05
65584;DHT22;70321;43.592;1.456;2023-09-18T15:02:14;27.11;45.76
65584;DHT22;70321;43.592;1.456;2023-09-18T15:04:43;27.66;44.97
65584;DHT22;70321;43.592;1.456;2023-09-18T15:07:09;27.69;44.39
65584;DHT22;70321;43.592;1.456;2023-09-18T15:09:37;27.62;44.40
65584;DHT22;70321;43.592;1.456;2023-09-18T15:12:05;28.27;43.59
65584;DHT22;70321;43.592;1.456;2023-09-18T15:14:35;28.84;41.76
65584;DHT22;70321;43.592;1.456;2023-09-18T15:17:03;29.20;41.43
65584;DHT22;70321;43.592;1.456;2023-09-18T15:19:29;28.99;41.66
65584;DHT22;70321;43.592;1.456;2023-09-18T15:21:56;28.99;41.13
65584;DHT22;70321;43.592;1.456;2023-09-18T15:24:24;29.15;41.78
65584;DHT22;70321;43.592;1.456;2023-09-18T15:26:50;29.48;40.80
65584;DHT22;70321;43.592;1.456;2023-09-18T15:29:17;29.39;40.12
65584;DHT22;70321;43.592;1.456;2023-09-18T15:31:44;29.30;40.27
65584;DHT22;70321;43.592;1.456;2023-09-18T15:34:13;28.92;40.66
65584;DHT22;70321;43.592;1.456;2023-09-18T15:36:39;28.61;41.84
65584;DHT22;70321;43.592;1.456;2023-09-18T15:39:06;28.31;43.15
65584;DHT22;70321;43.592;1.456;2023-09-18T15:41:33;28.14;43.44
65584;DHT22;70321;43.592;1.456;2023-09-18T15:43:59;28.10;43.67
65584;DHT22;70321;43.592;1.456;2023-09-18T15:46:26;27.90;43.74
65584;DHT22;70321;43.592;1.456;2023-09-18T15:48:53;27.76;43.64
65584;DHT22;70321;43.592;1.456;2023-09-18T15:51:20;27.69;44.72